Weather observations for the past three days for
SAVANNAH/HARDIN CO
Imperial (Metric)
Date Time (cdt) Wind (mph) Vis. (mi.) Weather Sky Cond. Temperature (ºF) Relative Humidity Wind Chill (°F) Heat Index (°F) Pressure Precipitation (in)
Air Dwpt 6 hour altimeter (in) sea level (mb) 1 hr 3 hr 6 hr
Max. Min.
02 13:10 Vrbl 6 10.00 Fair CLR 96.8 68 39% 102 30.05 0.0
02 12:55 Vrbl 5 10.00 Fair CLR 95 66.2 39% 98 30.05 0.0
02 12:30 SE 7 10.00 Fair CLR 95 69.8 44% 101 30.06 0.0
02 12:15 Vrbl 6 10.00 Fair CLR 95 71.6 47% 103 30.07 0.0
02 11:55 E 6 10.00 Fair CLR 95 71.6 47% 103 30.08 0.0
02 11:30 Vrbl 5 10.00 Fair CLR 93.2 71.6 50% 101 30.08 0.0
02 11:10 Vrbl 5 10.00 Fair CLR 93.2 71.6 50% 101 30.09 0.0
02 10:55 Calm 10.00 Fair CLR 91.4 71.6 52% 99 30.09 0.0
02 10:30 Calm 10.00 Fair CLR 91.4 73.4 56% 100 30.09 0.0
02 10:10 Calm 10.00 Fair CLR 89.6 73.4 59% 98 30.09 0.0
02 09:55 Calm 10.00 Fair CLR 87.8 73.4 62% 96 30.09 0.0
02 09:35 Calm 10.00 Fair CLR 86 73.4 66% 93 30.09 0.0
02 09:10 Vrbl 5 10.00 Fair CLR 84.2 73.4 70% 91 30.09 0.0
02 08:55 SE 3 10.00 Fair CLR 84.2 71.6 66% 90 30.09 0.0
02 08:30 Calm 10.00 Fair CLR 80.6 71.6 74% 85 30.09 0.0
02 08:10 Calm 10.00 Fair CLR 78.8 71.6 79% 82 30.09 0.0
02 07:55 Calm 10.00 Fair CLR 75.2 71.6 89% 75 30.09 0.0
02 07:30 Calm 10.00 Fair CLR 73.4 71.6 94% 30.08 0.0
02 07:10 Calm 10.00 Fair CLR 71.6 71.6 100% 30.08 0.0
02 06:55 Calm 9.00 Fair CLR 71.6 71.6 100% 30.08 0.0
02 06:30 Calm 10.00 Fair CLR 71.6 69.8 94% 30.07 0.0
02 06:10 Calm 10.00 Fair CLR 71.6 69.8 94% 30.06 0.0
02 06:00 Calm 10.00 Fair CLR 71.6 71.6 100% 30.05 0.0
02 05:30 Calm 10.00 Fair CLR 71.6 71.6 100% 30.05 0.0
02 05:10 Calm 10.00 Fair CLR 71.6 71.6 100% 30.04 0.0
02 04:55 Calm 10.00 Fair CLR 71.6 71.6 100% 30.04 0.0
02 04:30 Calm 10.00 Fair CLR 71.6 71.6 100% 30.04 0.0
02 04:10 Calm 10.00 Fair CLR 71.6 71.6 100% 30.04 0.0
02 03:55 Calm 10.00 Fair CLR 71.6 71.6 100% 30.04 0.0
02 03:30 Calm 10.00 Fair CLR 71.6 71.6 100% 30.03 0.0
02 03:15 Calm 10.00 Fair CLR 71.6 71.6 100% 30.03 0.0
02 02:55 Calm 10.00 A Few Clouds FEW055 71.6 71.6 100% 30.03 0.0
02 02:30 Calm 10.00 Fair CLR 73.4 71.6 94% 30.03 0.0
02 02:10 Calm 10.00 Partly Cloudy SCT075 75.2 71.6 89% 75 30.03 0.0
02 01:50 Calm 10.00 Overcast OVC075 73.4 73.4 100% 30.03 0.0
02 01:35 Calm 10.00 Mostly Cloudy BKN075 73.4 73.4 100% 30.03 0.0
02 01:10 Calm 10.00 Fair CLR 73.4 73.4 100% 30.03 0.0
02 00:50 Calm 10.00 Fair CLR 73.4 73.4 100% 30.03 0.0
02 00:35 Calm 10.00 Fair CLR 75.2 73.4 94% 74 30.03 0.0
02 00:10 Calm 10.00 Fair CLR 75.2 73.4 94% 74 30.02 0.0
01 23:50 Calm 10.00 Fair CLR 75.2 73.4 94% 74 30.02 0.0
01 23:35 Calm 10.00 Fair CLR 77 73.4 89% 78 30.03 0.0
01 23:10 Calm 10.00 Fair CLR 75.2 73.4 94% 74 30.03 0.0
01 22:50 Calm 10.00 Fair CLR 77 75.2 94% 78 30.03 0.0
01 22:35 Calm 10.00 Fair CLR 77 75.2 94% 78 30.03 0.0
01 22:10 Calm 10.00 Fair CLR 77 75.2 94% 78 30.03 0.0
01 21:50 Calm 10.00 Fair CLR 77 75.2 94% 78 30.03 0.0
01 21:35 Calm 10.00 Fair CLR 78.8 75.2 89% 82 30.03 0.0
01 21:10 SW 3 10.00 Fair CLR 80.6 77 89% 87 30.03 0.0
01 20:50 Calm 10.00 Fair CLR 78.8 77 94% 83 30.02 0.0
01 20:35 Calm 10.00 Fair CLR 78.8 75.2 89% 82 30.02 0.0
01 20:10 Calm 10.00 Fair CLR 80.6 77 89% 87 30.01 0.0
01 19:50 Calm 10.00 Fair CLR 80.6 77 89% 87 30.01 0.0
01 19:35 Calm 10.00 Fair CLR 82.4 77 84% 91 30.01 0.0
01 19:10 Calm 10.00 Fair CLR 86 77 75% 97 30 0.0
01 18:55 Calm 10.00 Fair CLR 87.8 77 70% 100 30.01 0.0
01 18:30 Calm 10.00 Fair CLR 93.2 73.4 53% 103 30.01 0.0
01 18:15 Calm 10.00 Fair CLR 93.2 69.8 47% 99 30.01 0.0
01 17:55 Vrbl 3 10.00 Fair CLR 95 69.8 44% 101 30.01 0.0
01 17:30 S 7 10.00 Fair CLR 96.8 69.8 42% 103 30.01 0.0
01 17:10 S 6 10.00 Fair CLR 96.8 68 39% 102 30.01 0.0
01 16:55 Vrbl 6 10.00 Fair CLR 96.8 68 39% 102 30.01 0.0
01 16:30 Vrbl 3 10.00 Fair CLR 96.8 68 39% 102 30.01 0.0
01 16:10 Calm 10.00 Fair CLR 96.8 69.8 42% 103 30.01 0.0
01 15:55 E 5 10.00 Fair CLR 96.8 68 39% 102 30.02 0.0
01 15:35 Vrbl 3 10.00 Fair CLR 96.8 69.8 42% 103 30.02 0.0
01 15:10 E 6 10.00 Fair CLR 96.8 69.8 42% 103 30.03 0.0
01 14:55 E 7 10.00 Fair CLR 96.8 69.8 42% 103 30.03 0.0
01 14:30 Vrbl 5 10.00 Partly Cloudy FEW060 SCT070 95 69.8 44% 101 30.04 0.0
01 14:10 Vrbl 7 10.00 A Few Clouds FEW060 96.8 69.8 42% 103 30.05 0.0
01 13:55 Vrbl 3 10.00 Fair CLR 96.8 68 39% 102 30.05 0.0
01 13:30 SE 6 10.00 Fair CLR 95 71.6 47% 103 30.06 0.0
01 13:10 Calm 10.00 Fair CLR 93.2 71.6 50% 101 30.07 0.0
01 12:55 NE 5 10.00 Fair CLR 93.2 71.6 50% 101 30.07 0.0
01 12:30 Vrbl 6 10.00 A Few Clouds FEW049 FEW055 95 69.8 44% 101 30.07 0.0
01 12:10 Calm 10.00 A Few Clouds FEW055 93.2 71.6 50% 101 30.09 0.0
01 12:00 SE 5 10.00 Fair CLR 93.2 71.6 50% 101 30.09 0.0
01 11:30 SE 5 10.00 Fair CLR 93.2 73.4 53% 103 30.1 0.0
01 11:10 S 3 10.00 Fair CLR 91.4 73.4 56% 100 30.1 0.0
01 10:55 S 5 10.00 Fair CLR 91.4 73.4 56% 100 30.11 0.0
01 10:30 Vrbl 6 10.00 Fair CLR 91.4 73.4 56% 100 30.11 0.0
01 10:10 SW 5 10.00 Fair CLR 89.6 73.4 59% 98 30.1 0.0
01 09:55 SW 6 10.00 Fair CLR 89.6 73.4 59% 98 30.11 0.0
01 09:30 Calm 10.00 Fair CLR 86 75.2 70% 95 30.1 0.0
01 09:15 Calm 10.00 Fair CLR 86 73.4 66% 93 30.1 0.0
01 08:55 Calm 10.00 Fair CLR 82.4 73.4 74% 88 30.11 0.0
01 08:30 Calm 10.00 Fair CLR 80.6 73.4 79% 85 30.11 0.0
01 08:10 Calm 10.00 Fair CLR 78.8 73.4 84% 82 30.1 0.0
01 07:55 Calm 10.00 Fair CLR 75.2 73.4 94% 74 30.11 0.0
01 07:30 Calm 10.00 Fair CLR 73.4 71.6 94% 30.1 0.0
01 07:10 Calm 9.00 Fair CLR 71.6 71.6 100% 30.1 0.0
01 06:55 Calm 9.00 Fair CLR 71.6 71.6 100% 30.09 0.0
01 06:35 Calm 8.00 Fair CLR 71.6 71.6 100% 30.08 0.0
01 06:10 Calm 10.00 Fair CLR 71.6 71.6 100% 30.08 0.0
01 05:55 Calm 10.00 Fair CLR 71.6 71.6 100% 30.07 0.0
01 05:30 Calm 10.00 Fair CLR 71.6 71.6 100% 30.07 0.0
01 05:10 Calm 9.00 Fair CLR 71.6 71.6 100% 30.07 0.0
01 04:55 Calm 10.00 Fair CLR 71.6 71.6 100% 30.07 0.0
01 04:30 Calm 7.00 Fair CLR 71.6 71.6 100% 30.06 0.0
01 04:10 Calm 9.00 Fair CLR 71.6 71.6 100% 30.06 0.0
01 03:55 Calm 10.00 Fair CLR 73.4 71.6 94% 30.06 0.0
01 03:30 Calm 10.00 Fair CLR 73.4 73.4 100% 30.05 0.0
01 03:10 Calm 10.00 Fair CLR 73.4 73.4 100% 30.05 0.0
01 02:30 Calm 10.00 Fair CLR 73.4 73.4 100% 30.05 0.0
01 02:10 Calm 10.00 Fair CLR 73.4 73.4 100% 30.04 0.0
01 01:50 Calm 10.00 Fair CLR 73.4 73.4 100% 30.04 0.0
01 01:35 Calm 10.00 Fair CLR 73.4 73.4 100% 30.05 0.0
01 01:10 Calm 10.00 Fair CLR 73.4 73.4 100% 30.05 0.0
01 00:50 Calm 10.00 Fair CLR 75.2 73.4 94% 74 30.06 0.0
01 00:35 Calm 10.00 Fair CLR 75.2 75.2 100% 73 30.05 0.0
01 00:10 Calm 10.00 Fair CLR 75.2 75.2 100% 73 30.05 0.0
31 23:50 Calm 10.00 Fair CLR 75.2 73.4 94% 74 30.05 0.0
31 23:35 Calm 10.00 Fair CLR 75.2 75.2 100% 73 30.06 0.0
31 23:10 Calm 10.00 Fair CLR 77 75.2 94% 78 30.05 0.0
31 22:50 Calm 10.00 Fair CLR 77 75.2 94% 78 30.05 0.0
31 22:35 Calm 10.00 Fair CLR 77 75.2 94% 78 30.05 0.0
31 22:10 Calm 10.00 Fair CLR 78.8 75.2 89% 82 30.05 0.0
31 21:50 Calm 10.00 Fair CLR 78.8 77 94% 83 30.04 0.0
31 21:35 Calm 10.00 Fair CLR 78.8 77 94% 83 30.04 0.0
31 21:10 Calm 10.00 Fair CLR 78.8 77 94% 83 30.04 0.0
31 20:50 Calm 10.00 Fair CLR 78.8 77 94% 83 30.03 0.0
31 20:35 Calm 10.00 Fair CLR 78.8 77 94% 83 30.03 0.0
31 20:10 Calm 10.00 Fair CLR 80.6 77 89% 87 30.03 0.0
31 19:50 Calm 10.00 Fair CLR 82.4 77 84% 91 30.02 0.0
31 19:35 Calm 10.00 Fair CLR 82.4 77 84% 91 30.02 0.0
31 19:10 Calm 10.00 Fair CLR 86 77 75% 97 30.02 0.0
31 18:30 S 6 10.00 Fair CLR 91.4 73.4 56% 100 30.02 0.0
31 18:10 SE 7 10.00 Fair CLR 91.4 73.4 56% 100 30.02 0.0
31 18:00 S 5 10.00 Fair CLR 93.2 71.6 50% 101 30.02 0.0
31 17:30 S 5 10.00 Fair CLR 95 69.8 44% 101 30.02 0.0
31 17:10 S 5 10.00 Fair CLR 95 69.8 44% 101 30.03 0.0
31 16:55 Vrbl 5 10.00 Fair CLR 95 69.8 44% 101 30.03 0.0
31 16:30 SE 5 10.00 Fair CLR 95 68 41% 100 30.03 0.0
31 16:10 SE 5 10.00 Fair CLR 96.8 68 39% 102 30.04 0.0
31 15:55 Calm 10.00 Fair CLR 95 66.2 39% 98 30.04 0.0
31 15:30 Vrbl 3 10.00 Fair CLR 95 68 41% 100 30.04 0.0
31 15:15 S 6 10.00 Fair CLR 95 68 41% 100 30.04 0.0
31 14:55 Vrbl 3 10.00 Fair CLR 95 68 41% 100 30.05 0.0
31 14:30 Vrbl 5 10.00 A Few Clouds FEW065 95 69.8 44% 101 30.06 0.0
31 14:10 Vrbl 5 10.00 Partly Cloudy FEW050 SCT065 95 69.8 44% 101 30.07 0.0
31 13:55 Vrbl 6 10.00 A Few Clouds FEW050 93.2 69.8 47% 99 30.07 0.0
31 13:30 Vrbl 6 10.00 Fair CLR 93.2 69.8 47% 99 30.08 0.0
31 12:55 SE 6 10.00 Fair CLR 93.2 71.6 50% 101 30.09 0.0
31 12:35 SE 5 10.00 Partly Cloudy SCT045 91.4 71.6 52% 99 30.1 0.0
31 12:10 Calm 10.00 Mostly Cloudy BKN042 BKN050 93.2 71.6 50% 101 30.11 0.0
31 11:55 SE 6 10.00 Partly Cloudy FEW039 SCT050 SCT055 91.4 71.6 52% 99 30.11 0.0
31 11:30 W 5 10.00 Fair CLR 91.4 71.6 52% 99 30.12 0.0
31 11:10 Calm 10.00 Fair CLR 89.6 73.4 59% 98 30.12 0.0
31 10:55 SE 6 10.00 Fair CLR 89.6 75.2 63% 100 30.12 0.0
31 10:30 Vrbl 6 10.00 Fair CLR 87.8 75.2 66% 98 30.12 0.0
31 10:10 Vrbl 5 10.00 Fair CLR 87.8 73.4 62% 96 30.12 0.0
31 09:55 S 6 10.00 Fair CLR 87.8 73.4 62% 96 30.12 0.0
31 09:30 Vrbl 5 10.00 Fair CLR 86 73.4 66% 93 30.11 0.0
31 09:10 S 7 10.00 Fair CLR 84.2 73.4 70% 91 30.11 0.0
31 09:00 SE 5 10.00 Fair CLR 82.4 73.4 74% 88 30.11 0.0
31 08:30 S 6 10.00 Fair CLR 80.6 73.4 79% 85 30.11 0.0
31 08:10 S 5 10.00 Fair CLR 78.8 71.6 79% 82 30.11 0.0
31 07:55 Calm 10.00 Fair CLR 77 71.6 83% 78 30.1 0.0
31 07:30 Calm 10.00 Fair CLR 75.2 71.6 89% 75 30.1 0.0
31 07:10 Calm 10.00 Fair CLR 71.6 71.6 100% 30.09 0.0
31 06:55 Calm 10.00 Fair CLR 71.6 69.8 94% 30.09 0.0
31 06:30 Calm 10.00 Fair CLR 69.8 69.8 100% 30.08 0.0
31 06:15 Calm 10.00 Fair CLR 69.8 69.8 100% 30.08 0.0
31 05:55 Calm 10.00 Fair CLR 69.8 69.8 100% 30.07 0.0
31 05:30 Calm 9.00 Fair CLR 69.8 69.8 100% 30.07 0.0
31 05:10 Calm 10.00 Fair CLR 69.8 69.8 100% 30.06 0.0
31 04:55 Calm 10.00 Fair CLR 71.6 71.6 100% 30.06 0.0
31 04:30 Calm 10.00 Fair CLR 71.6 71.6 100% 30.05 0.0
31 04:10 Calm 10.00 Fair CLR 71.6 71.6 100% 30.05 0.0
31 03:55 Calm 10.00 Fair CLR 71.6 71.6 100% 30.05 0.0
31 03:35 Calm 10.00 Fair CLR 71.6 71.6 100% 30.05 0.0
31 03:10 Calm 10.00 Fair CLR 71.6 71.6 100% 30.04 0.0
31 02:55 Calm 10.00 Fair CLR 71.6 71.6 100% 30.04 0.0
31 02:30 Calm 10.00 Fair CLR 71.6 71.6 100% 30.04 0.0
31 02:10 Calm 10.00 Fair CLR 71.6 71.6 100% 30.04 0.0
31 01:50 Calm 10.00 Fair CLR 73.4 71.6 94% 30.05 0.0
31 01:35 Calm 10.00 Fair CLR 71.6 71.6 100% 30.05 0.0
31 00:50 Calm 10.00 Fair CLR 73.4 73.4 100% 30.05 0.0
31 00:35 Calm 10.00 Fair CLR 73.4 73.4 100% 30.05 0.0
31 00:10 Calm 10.00 Fair CLR 75.2 73.4 94% 74 30.05 0.0
30 23:50 Calm 10.00 Fair CLR 75.2 73.4 94% 74 30.05 0.0
30 23:35 Calm 10.00 Fair CLR 75.2 73.4 94% 74 30.05 0.0
30 23:10 Calm 10.00 Fair CLR 75.2 73.4 94% 74 30.06 0.0
30 22:50 Calm 10.00 Fair CLR 75.2 75.2 100% 73 30.06 0.0
30 22:35 Calm 10.00 Fair CLR 75.2 75.2 100% 73 30.06 0.0
30 22:10 Calm 10.00 Fair CLR 75.2 75.2 100% 73 30.05 0.0
30 21:50 Calm 10.00 Fair CLR 75.2 75.2 100% 73 30.05 0.0
30 21:35 Calm 10.00 Fair CLR 77 75.2 94% 78 30.05 0.0
30 21:10 Calm 10.00 Fair CLR 78.8 75.2 89% 82 30.04 0.0
30 20:50 Calm 10.00 Fair CLR 78.8 75.2 89% 82 30.04 0.0
30 20:35 Calm 10.00 Fair CLR 78.8 75.2 89% 82 30.04 0.0
30 20:10 Calm 10.00 Fair CLR 80.6 75.2 84% 86 30.02 0.0
30 19:50 Calm 10.00 Fair CLR 80.6 75.2 84% 86 30.02 0.0
30 19:35 Calm 10.00 Fair CLR 84.2 75.2 74% 92 30.02 0.0
30 19:10 SE 3 10.00 Fair CLR 86 73.4 66% 93 30.02 0.0
30 18:50 SE 6 10.00 Fair CLR 87.8 73.4 62% 96 30.02 0.0
30 18:30 SE 5 10.00 Fair CLR 89.6 73.4 59% 98 30.02 0.0
30 18:15 SE 5 10.00 Fair CLR 91.4 71.6 52% 99 30.02 0.0
30 17:50 SE 8 10.00 Fair CLR 91.4 69.8 49% 97 30.01 0.0
30 17:30 SE 6 10.00 Fair CLR 93.2 71.6 50% 101 30.01 0.0
30 17:15 S 5 10.00 Fair CLR 93.2 71.6 50% 101 30.02 0.0
30 16:50 S 5 10.00 Fair CLR 93.2 71.6 50% 101 30.02 0.0
30 16:30 S 6 10.00 Fair CLR 91.4 71.6 52% 99 30.02 0.0
30 16:15 Vrbl 5 10.00 A Few Clouds FEW047 91.4 71.6 52% 99 30.02 0.0
30 15:50 SE 9 10.00 Partly Cloudy FEW047 SCT060 93.2 71.6 50% 101 30.02 0.0
30 15:30 SE 6 G 12 10.00 Fair CLR 93.2 71.6 50% 101 30.03 0.0
30 15:15 SW 5 G 14 10.00 Fair CLR 93.2 71.6 50% 101 30.03 0.0
30 14:50 S 7 G 14 10.00 Fair CLR 93.2 71.6 50% 101 30.05 0.0
30 14:30 Vrbl 5 G 12 0.00 Fair CLR 91.4 71.6 52% 99 30.06 0.0
30 14:15 Vrbl 6 10.00 Fair CLR 93.2 71.6 50% 101 30.06 0.0
30 13:50 S 8 10.00 Fair CLR 93.2 69.8 47% 99 30.07 0.0
Date Time (cdt) Wind (mph) Vis. (mi.) Weather Sky Cond. Air Dwpt Max. Min. Relative Humidity Wind Chill (°F) Heat Index (°F) altimeter (in) sea level (mb) 1 hr 3 hr 6 hr
6 hour
Temperature (ºF) Pressure Precipitation (in)